Aeroporto :
LOGIN :

Iscrizione | Disclaimer

   EN    FR    IT 

 










Sommario :    VFR   VFR Marginale   IFR   IFR Intensivo   IFR Molto Intensivo
Visibilità : 
Base nubi : 
>= 8 km
>= 3000ft
5 / 8 km
1000 / 3000 ft
1500m / 5 km
500 / 1000 ft
800 / 1500m
200 / 500 ft
< 800m
< 200 ft
Simboli :   Temporali  Nebbia  Neve Forte  Precipitazioni Forti  Vento > 20 kt
SIGMETs :   Varie  Temporali  Ghiacco  Turbolenza  Onda orograficha  Ceneri Vulcaniche






- Altitudine del aeroporto : 96 ft
- Codice IATA : REG


LICR - Reggio Calabria

ULTIMO METAR :
  • 220850Z AUTO 36017KT 9999 NCD 29/20 Q1013

METARs OBSOLETI :
  • 220820Z AUTO 36016KT 9999 NCD 29/20 Q1013
  • 220750Z AUTO 36015KT 9999 NCD 29/20 Q1013
  • 220720Z AUTO 36015KT 9999 NCD 28/21 Q1013
  • 220650Z AUTO 36017KT 9999 NCD 27/21 Q1013
  • 220620Z AUTO 01017KT 9999 NCD 27/21 Q1013
  • 220550Z AUTO 01016G26KT 9999 NCD 26/21 Q1013
  • 220520Z AUTO 01017KT 9999 NCD 26/21 Q1013
  • 220450Z AUTO 36019KT 9999 NCD 26/21 Q1013
  • 220420Z AUTO 01020KT 9999 NCD 25/20 Q1012
  • 220350Z AUTO 01019KT 9999 NCD 25/21 Q1012

TAF TAF LICR
Valido dal 22 a 06 ore il 23 a 06 ore UTC


220500Z 2206/2306 01018G30KT CAVOK



MetMap, La meteo Aeronautica in un colpo d'occhio ! - Copyright ORBIFLY Dicembre 2007 - Disclaimer

ORBIFLY MET'MAP TEAM :

Programmazione e sviluppo : Alexandra Zaïnal
Concezione : Baudouin d'Aumeries
Supporto tecnico e logistico : Manuel Goepfert
Aiuto : Marc-Olivier Méhu
Aiuto per la traduzione : Arnaldo La Scala




FONTI E CREDITI :

   NOAA